메인 페이지
METAR-TAF:

공항 :

칭다오, 중국

칭다오 류팅 국제공항

위도: 36-04N, 경도: 120-20E, 고도: 77m

현재 날씨관측

예보는 35분 전, 08:00시(UTC)에 발표되었습니다.
4kt
온도 10°C
습도 87%
기압 1013 hPa
시정: 4500m
고도 900ft 상공 구름 많음
고도 5000ft 상공 구름 많음
박무

METAR: ZSQD 110800Z 17002MPS 4500 BR BKN009 BKN050 10/08 Q1013 BECMG TL0900 SCT011

시각: 16:35 (08:35 UTC)

예보

예보는 5 시간 20분 전, 03:15시(UTC)에 발표되었습니다.
예보 대상 시간: 11일 06시부터 12일 06시까지 (UTC)
남동6kt
시정: 3500m
고도 900ft 상공 구름 많음
고도 2000ft 상공 구름 많음
박무
일시적
11일 18시부터 11일 24시까지 (UTC)
시정: 1500m
박무

TAF: ZSQD 110315Z 1106/1206 14003MPS 3500 BR BKN009 BKN020 TX13/1106Z TN05/1122Z TEMPO 1118/1124 1500 BR

METAR-TAF

4,000개 이상의 공항 관측 자료 및 예보 (METAR 및 TAF 보고).

지도상에서 검색 가능한 기상관측소가 노란 점과 빨간 점으로 표시되어 있습니다.

기상관측소 명을 보려면 표시 위로 마우스를 이동하세요.

날씨 관측과 예보를 보려면 클릭하세요.

지도 변경 : 확대하려면 엑스 표시가 있는 녹색 버튼, 축소하려면 빼기 표시가 있는 녹색 버튼, 다음 페이지의 지도를 보려면 녹색 화살표를 클릭하세요.


METAR-TAF: